createdAt,value
2018-11-01T00:00:39.679Z,0
2018-11-01T00:01:39.392Z,0
2018-11-01T00:02:39.363Z,0
2018-11-01T00:03:39.622Z,0
2018-11-01T00:04:39.607Z,0
2018-11-01T00:05:38.798Z,0
2018-11-01T00:06:39.320Z,0
2018-11-01T00:07:39.061Z,0
2018-11-01T00:08:38.756Z,0
2018-11-01T00:09:39.267Z,0
2018-11-01T00:10:39.517Z,0
2018-11-01T00:11:39.487Z,0
2018-11-01T00:12:38.950Z,0
2018-11-01T00:13:38.663Z,0
2018-11-01T00:14:38.915Z,0
2018-11-01T00:15:38.907Z,0
2018-11-01T00:16:38.358Z,0
2018-11-01T00:17:38.610Z,0
2018-11-01T00:18:39.129Z,0
2018-11-01T00:19:39.101Z,0
2018-11-01T00:20:38.555Z,0
2018-11-01T00:21:38.535Z,0
2018-11-01T00:22:39.057Z,0
2018-11-01T00:23:38.511Z,0
2018-11-01T00:24:39.017Z,0
2018-11-01T00:25:39.273Z,0
2018-11-01T00:26:39.307Z,0
2018-11-01T00:27:38.449Z,0
2018-11-01T00:28:38.961Z,0
2018-11-01T00:29:38.673Z,0
2018-11-01T00:30:38.935Z,0
2018-11-01T00:31:38.922Z,0
2018-11-01T00:32:38.624Z,0
2018-11-01T00:33:38.613Z,0
2018-11-01T00:34:39.117Z,0
2018-11-01T00:35:38.844Z,0
2018-11-01T00:36:39.095Z,0
2018-11-01T00:37:38.804Z,0
2018-11-01T00:38:38.521Z,0
2018-11-01T00:39:39.049Z,0
2018-11-01T00:40:38.754Z,0
2018-11-01T00:41:38.743Z,0
2018-11-01T00:42:38.192Z,0
2018-11-01T00:43:37.911Z,0
2018-11-01T00:44:38.688Z,0
2018-11-01T00:45:38.413Z,0
2018-11-01T00:46:38.664Z,0
2018-11-01T00:47:38.379Z,0
2018-11-01T00:48:38.621Z,0
2018-11-01T00:49:38.366Z,0
2018-11-01T00:50:38.331Z,0
2018-11-01T00:51:38.576Z,0
2018-11-01T00:52:38.829Z,0
2018-11-01T00:53:38.279Z,0
2018-11-01T00:54:38.584Z,0
2018-11-01T00:55:37.719Z,0
2018-11-01T00:56:38.228Z,0
2018-11-01T00:57:37.948Z,0
2018-11-01T00:58:38.734Z,0
2018-11-01T00:59:38.185Z,0
2018-11-01T01:00:37.897Z,0
2018-11-01T01:01:38.147Z,0
2018-11-01T01:02:38.662Z,0
2018-11-01T01:03:38.653Z,0
2018-11-01T01:04:38.374Z,0
2018-11-01T01:05:37.819Z,0
2018-11-01T01:06:38.609Z,0
2018-11-01T01:07:38.313Z,0
2018-11-01T01:08:38.036Z,0
2018-11-01T01:09:38.284Z,0
2018-11-01T01:10:38.561Z,0
2018-11-01T01:11:38.514Z,0
2018-11-01T01:12:38.234Z,0
2018-11-01T01:13:38.218Z,0
2018-11-01T01:14:37.672Z,0
2018-11-01T01:15:38.454Z,0
2018-11-01T01:16:37.906Z,0
2018-11-01T01:17:37.893Z,0
2018-11-01T01:18:37.868Z,0
2018-11-01T01:19:37.868Z,0
2018-11-01T01:20:38.379Z,0
2018-11-01T01:21:37.829Z,0
2018-11-01T01:22:38.352Z,0
2018-11-01T01:23:37.790Z,0
2018-11-01T01:24:38.305Z,0
2018-11-01T01:25:38.298Z,0
2018-11-01T01:26:37.742Z,0
2018-11-01T01:27:37.726Z,0
2018-11-01T01:28:37.710Z,0
2018-11-01T01:29:37.708Z,0
2018-11-01T01:30:37.951Z,0
2018-11-01T01:31:37.659Z,0
2018-11-01T01:32:38.183Z,0
2018-11-01T01:33:38.154Z,0
2018-11-01T01:34:38.284Z,0
2018-11-01T01:35:38.129Z,0
2018-11-01T01:36:37.581Z,0
2018-11-01T01:37:37.838Z,0
2018-11-01T01:38:37.816Z,0
2018-11-01T01:39:37.797Z,0
2018-11-01T01:40:37.788Z,0
2018-11-01T01:41:37.764Z,0
2018-11-01T01:42:37.752Z,0
2018-11-01T01:43:37.474Z,0
2018-11-01T01:44:37.455Z,0
2018-11-01T01:45:37.705Z,0
2018-11-01T01:46:37.972Z,0
2018-11-01T01:47:37.940Z,0
2018-11-01T01:48:37.651Z,0
2018-11-01T01:49:37.370Z,0
2018-11-01T01:50:37.819Z,0
2018-11-01T01:51:37.868Z,0
2018-11-01T01:52:37.866Z,0
2018-11-01T01:53:37.570Z,0
2018-11-01T01:54:37.036Z,0
2018-11-01T01:55:37.549Z,0
2018-11-01T01:56:37.788Z,0
2018-11-01T01:57:36.974Z,0
2018-11-01T01:58:37.491Z,0
2018-11-01T01:59:37.541Z,0
2018-11-01T02:00:37.462Z,0
2018-11-01T02:01:37.175Z,0
2018-11-01T02:02:37.165Z,0
2018-11-01T02:03:36.887Z,0
2018-11-01T02:04:36.869Z,0
2018-11-01T02:05:37.642Z,0
2018-11-01T02:06:37.364Z,0
2018-11-01T02:07:37.355Z,0
2018-11-01T02:08:37.596Z,0
2018-11-01T02:09:37.320Z,0
2018-11-01T02:10:37.309Z,0
2018-11-01T02:11:37.738Z,0
2018-11-01T02:12:36.475Z,0
2018-11-01T02:13:37.252Z,0
2018-11-01T02:14:37.230Z,0
2018-11-01T02:15:37.481Z,0
2018-11-01T02:16:36.937Z,0
2018-11-01T02:17:37.449Z,0
2018-11-01T02:18:37.183Z,0
2018-11-01T02:19:36.886Z,0
2018-11-01T02:20:37.146Z,0
2018-11-01T02:21:36.896Z,0
2018-11-01T02:22:37.104Z,0
2018-11-01T02:23:37.414Z,0
2018-11-01T02:24:37.346Z,0
2018-11-01T02:25:37.070Z,0
2018-11-01T02:26:36.781Z,0
2018-11-01T02:27:37.296Z,0
2018-11-01T02:28:37.279Z,0
2018-11-01T02:29:37.015Z,0
2018-11-01T02:30:36.728Z,0
2018-11-01T02:31:37.113Z,0
2018-11-01T02:32:36.697Z,0
2018-11-01T02:33:36.672Z,0
2018-11-01T02:34:36.924Z,0
2018-11-01T02:35:37.180Z,0
2018-11-01T02:36:36.883Z,0
2018-11-01T02:37:36.876Z,0
2018-11-01T02:38:37.285Z,0
2018-11-01T02:39:36.864Z,0
2018-11-01T02:40:36.563Z,0
2018-11-01T02:41:36.544Z,0
2018-11-01T02:42:36.544Z,0
2018-11-01T02:43:36.248Z,0
2018-11-01T02:44:36.781Z,0
2018-11-01T02:45:36.757Z,0
2018-11-01T02:46:36.193Z,0
2018-11-01T02:47:36.721Z,0
2018-11-01T02:48:36.706Z,0
2018-11-01T02:49:36.972Z,0
2018-11-01T02:50:36.407Z,0
2018-11-01T02:51:36.932Z,0
2018-11-01T02:52:36.642Z,0
2018-11-01T02:53:36.357Z,0
2018-11-01T02:54:36.338Z,0
2018-11-01T02:55:36.590Z,0
2018-11-01T02:56:36.869Z,0
2018-11-01T02:57:36.290Z,0
2018-11-01T02:58:36.844Z,0
2018-11-01T02:59:37.034Z,0
2018-11-01T03:00:36.782Z,0
2018-11-01T03:01:36.765Z,0
2018-11-01T03:02:36.210Z,0
2018-11-01T03:03:36.387Z,0
2018-11-01T03:04:36.437Z,0
2018-11-01T03:05:36.719Z,0
2018-11-01T03:06:36.414Z,0
2018-11-01T03:07:36.396Z,0
2018-11-01T03:08:36.112Z,0
2018-11-01T03:09:36.380Z,0
2018-11-01T03:10:36.103Z,0
2018-11-01T03:11:36.342Z,0
2018-11-01T03:12:36.324Z,0
2018-11-01T03:13:36.310Z,0
2018-11-01T03:14:36.552Z,0
2018-11-01T03:15:35.997Z,0
2018-11-01T03:16:35.990Z,0
2018-11-01T03:17:35.980Z,0
2018-11-01T03:18:35.950Z,0
2018-11-01T03:19:36.214Z,0
2018-11-01T03:20:36.186Z,0
2018-11-01T03:21:35.880Z,0
2018-11-01T03:22:35.888Z,0
2018-11-01T03:23:36.153Z,0
2018-11-01T03:24:36.384Z,0
2018-11-01T03:25:36.401Z,0
2018-11-01T03:26:36.209Z,0
2018-11-01T03:27:36.342Z,0
2018-11-01T03:28:35.534Z,0
2018-11-01T03:29:35.521Z,0
2018-11-01T03:30:36.029Z,0
2018-11-01T03:31:36.285Z,0
2018-11-01T03:32:35.745Z,0
2018-11-01T03:33:35.462Z,0
2018-11-01T03:34:35.963Z,0
2018-11-01T03:35:35.767Z,0
2018-11-01T03:36:35.955Z,0
2018-11-01T03:37:36.177Z,0
2018-11-01T03:38:36.934Z,0
2018-11-01T03:39:35.897Z,0
2018-11-01T03:40:35.870Z,0
2018-11-01T03:41:35.588Z,0
2018-11-01T03:42:35.569Z,0
2018-11-01T03:43:36.093Z,0
2018-11-01T03:44:35.535Z,0
2018-11-01T03:45:36.153Z,0
2018-11-01T03:46:35.783Z,0
2018-11-01T03:47:35.236Z,0
2018-11-01T03:48:36.008Z,0
2018-11-01T03:49:35.729Z,0
2018-11-01T03:50:35.452Z,0
2018-11-01T03:51:35.711Z,0
2018-11-01T03:52:36.022Z,0
2018-11-01T03:53:36.307Z,0
2018-11-01T03:54:35.828Z,0
2018-11-01T03:55:35.118Z,0
2018-11-01T03:56:35.350Z,0
2018-11-01T03:57:35.333Z,0
2018-11-01T03:58:35.600Z,0
2018-11-01T03:59:35.326Z,0
2018-11-01T04:00:35.560Z,0
2018-11-01T04:01:35.544Z,0
2018-11-01T04:02:35.262Z,0
2018-11-01T04:03:35.635Z,0
2018-11-01T04:04:35.763Z,0
2018-11-01T04:05:35.770Z,0
2018-11-01T04:06:34.925Z,0
2018-11-01T04:07:35.172Z,0
2018-11-01T04:08:35.427Z,0
2018-11-01T04:09:35.692Z,0
2018-11-01T04:10:34.870Z,0
2018-11-01T04:11:35.379Z,0
2018-11-01T04:12:35.633Z,0
2018-11-01T04:13:35.732Z,0
2018-11-01T04:14:35.080Z,0
2018-11-01T04:15:35.319Z,0
2018-11-01T04:16:34.773Z,0
2018-11-01T04:17:35.288Z,0
2018-11-01T04:18:35.023Z,0
2018-11-01T04:19:35.524Z,0
2018-11-01T04:20:35.237Z,0
2018-11-01T04:21:34.954Z,0
2018-11-01T04:22:34.936Z,0
2018-11-01T04:23:35.542Z,0
2018-11-01T04:24:35.173Z,0
2018-11-01T04:25:35.258Z,0
2018-11-01T04:26:34.827Z,0
2018-11-01T04:27:34.801Z,0
2018-11-01T04:28:35.028Z,0
2018-11-01T04:29:34.750Z,0
2018-11-01T04:30:35.057Z,0
2018-11-01T04:31:34.484Z,0
2018-11-01T04:32:35.025Z,0
2018-11-01T04:33:35.356Z,0
2018-11-01T04:34:34.958Z,0
2018-11-01T04:35:34.757Z,0
2018-11-01T04:36:34.987Z,0
2018-11-01T04:37:34.874Z,0
2018-11-01T04:38:35.106Z,0
2018-11-01T04:39:34.833Z,0
2018-11-01T04:40:35.063Z,0
2018-11-01T04:41:35.065Z,0
2018-11-01T04:42:34.793Z,0
2018-11-01T04:43:34.823Z,0
2018-11-01T04:44:34.248Z,0
2018-11-01T04:45:34.240Z,0
2018-11-01T04:46:34.890Z,0
2018-11-01T04:47:34.778Z,0
2018-11-01T04:48:34.946Z,0
2018-11-01T04:49:34.156Z,0
2018-11-01T04:50:34.653Z,0
2018-11-01T04:51:34.644Z,0
2018-11-01T04:52:34.640Z,0
2018-11-01T04:53:34.876Z,0
2018-11-01T04:54:34.599Z,0
2018-11-01T04:55:34.573Z,0
2018-11-01T04:56:34.557Z,0
2018-11-01T04:57:34.807Z,0
2018-11-01T04:58:34.527Z,0
2018-11-01T04:59:34.251Z,0
2018-11-01T05:00:34.494Z,0
2018-11-01T05:01:34.736Z,0
2018-11-01T05:02:34.206Z,0
2018-11-01T05:03:34.710Z,0
2018-11-01T05:04:34.686Z,0
2018-11-01T05:05:34.157Z,0
2018-11-01T05:06:34.694Z,0
2018-11-01T05:07:34.382Z,0
2018-11-01T05:08:34.617Z,0
2018-11-01T05:09:34.618Z,0
2018-11-01T05:10:34.602Z,0
2018-11-01T05:11:34.330Z,0
2018-11-01T05:12:34.318Z,0
2018-11-01T05:13:34.551Z,0
2018-11-01T05:14:34.275Z,0
2018-11-01T05:15:34.212Z,0
2018-11-01T05:16:34.246Z,0
2018-11-01T05:17:34.230Z,0
2018-11-01T05:18:33.949Z,0
2018-11-01T05:19:34.458Z,0
2018-11-01T05:20:34.221Z,0
2018-11-01T05:21:34.422Z,0
2018-11-01T05:22:33.893Z,0
2018-11-01T05:23:34.124Z,0
2018-11-01T05:24:33.899Z,0
2018-11-01T05:25:34.164Z,0
2018-11-01T05:26:34.357Z,0
2018-11-01T05:27:33.541Z,0
2018-11-01T05:28:33.797Z,0
2018-11-01T05:29:33.928Z,0
2018-11-01T05:30:33.757Z,0
2018-11-01T05:31:33.226Z,0
2018-11-01T05:32:33.993Z,0
2018-11-01T05:33:34.222Z,0
2018-11-01T05:34:34.385Z,0
2018-11-01T05:35:33.936Z,0
2018-11-01T05:36:33.935Z,0
2018-11-01T05:37:33.907Z,0
2018-11-01T05:38:33.636Z,0
2018-11-01T05:39:33.613Z,0
2018-11-01T05:40:33.856Z,0
2018-11-01T05:41:33.597Z,0
2018-11-01T05:42:33.830Z,0
2018-11-01T05:43:33.293Z,0
2018-11-01T05:44:33.806Z,0
2018-11-01T05:45:33.785Z,0
2018-11-01T05:46:33.770Z,0
2018-11-01T05:47:33.743Z,0
2018-11-01T05:48:33.987Z,0
2018-11-01T05:49:33.210Z,0
2018-11-01T05:50:33.436Z,0
2018-11-01T05:51:33.684Z,0
2018-11-01T05:52:33.668Z,0
2018-11-01T05:53:33.656Z,0
2018-11-01T05:54:33.384Z,0
2018-11-01T05:55:33.369Z,0
2018-11-01T05:56:33.625Z,0
2018-11-01T05:57:33.069Z,0
2018-11-01T05:58:33.577Z,0
2018-11-01T05:59:33.828Z,0
2018-11-01T06:00:33.035Z,5
2018-11-01T06:01:33.549Z,5
2018-11-01T06:02:33.765Z,5
2018-11-01T06:03:33.773Z,5
2018-11-01T06:04:32.971Z,5
2018-11-01T06:05:33.658Z,5
2018-11-01T06:06:33.198Z,5
2018-11-01T06:07:33.446Z,5
2018-11-01T06:08:33.162Z,5
2018-11-01T06:09:32.891Z,10
2018-11-01T06:10:33.400Z,10
2018-11-01T06:11:33.379Z,10
2018-11-01T06:12:33.979Z,10
2018-11-01T06:13:33.085Z,10
2018-11-01T06:14:33.588Z,15
2018-11-01T06:15:33.589Z,15
2018-11-01T06:16:32.782Z,15
2018-11-01T06:17:33.028Z,15
2018-11-01T06:18:33.012Z,20
2018-11-01T06:19:33.246Z,20
2018-11-01T06:20:33.497Z,20
2018-11-01T06:21:33.490Z,20
2018-11-01T06:22:32.694Z,20
2018-11-01T06:23:33.197Z,25
2018-11-01T06:24:32.406Z,25
2018-11-01T06:25:33.157Z,25
2018-11-01T06:26:33.150Z,30
2018-11-01T06:27:33.139Z,30
2018-11-01T06:28:33.376Z,30
2018-11-01T06:29:32.592Z,30
2018-11-01T06:30:33.405Z,30
2018-11-01T06:31:33.335Z,30
2018-11-01T06:32:33.055Z,30
2018-11-01T06:33:32.788Z,35
2018-11-01T06:34:33.293Z,35
2018-11-01T06:35:32.491Z,35
2018-11-01T06:36:33.257Z,35
2018-11-01T06:37:32.462Z,35
2018-11-01T06:38:32.453Z,35
2018-11-01T06:39:32.951Z,35
2018-11-01T06:40:32.938Z,40
2018-11-01T06:41:33.184Z,40
2018-11-01T06:42:32.905Z,45
2018-11-01T06:43:32.900Z,45
2018-11-01T06:44:32.835Z,50
2018-11-01T06:45:32.857Z,50
2018-11-01T06:46:33.109Z,55
2018-11-01T06:47:32.579Z,55
2018-11-01T06:48:32.570Z,55
2018-11-01T06:49:32.796Z,55
2018-11-01T06:50:32.783Z,55
2018-11-01T06:51:32.777Z,55
2018-11-01T06:52:32.410Z,55
2018-11-01T06:53:32.741Z,55
2018-11-01T06:54:32.723Z,55
2018-11-01T06:55:32.717Z,60
2018-11-01T06:56:32.696Z,60
2018-11-01T06:57:32.688Z,65
2018-11-01T06:58:33.497Z,65
2018-11-01T06:59:32.334Z,65
2018-11-01T07:00:32.647Z,65
2018-11-01T07:01:32.371Z,70
2018-11-01T07:02:32.101Z,70
2018-11-01T07:03:32.353Z,75
2018-11-01T07:04:32.853Z,80
2018-11-01T07:05:32.145Z,85
2018-11-01T07:06:32.565Z,90
2018-11-01T07:07:32.289Z,90
2018-11-01T07:08:32.272Z,95
2018-11-01T07:09:32.516Z,90
2018-11-01T07:10:32.247Z,95
2018-11-01T07:11:32.897Z,100
2018-11-01T07:12:32.474Z,105
2018-11-01T07:13:32.250Z,110
2018-11-01T07:14:32.710Z,115
2018-11-01T07:15:32.173Z,120
2018-11-01T07:16:32.675Z,125
2018-11-01T07:17:33.579Z,120
2018-11-01T07:18:32.700Z,115
2018-11-01T07:19:32.387Z,110
2018-11-01T07:20:32.366Z,100
2018-11-01T07:21:32.350Z,90
2018-11-01T07:22:32.592Z,85
2018-11-01T07:23:32.575Z,80
2018-11-01T07:24:32.562Z,75
2018-11-01T07:25:33.231Z,70
2018-11-01T07:26:33.134Z,70
2018-11-01T07:27:32.003Z,70
2018-11-01T07:28:32.248Z,70
2018-11-01T07:29:31.979Z,70
2018-11-01T07:30:31.983Z,70
2018-11-01T07:31:32.225Z,70
2018-11-01T07:32:32.347Z,70
2018-11-01T07:33:31.928Z,65
2018-11-01T07:34:31.662Z,60
2018-11-01T07:35:31.650Z,60
2018-11-01T07:36:32.146Z,55
2018-11-01T07:37:32.145Z,55
2018-11-01T07:38:32.132Z,55
2018-11-01T07:39:32.373Z,55
2018-11-01T07:40:31.841Z,55
2018-11-01T07:41:31.827Z,60
2018-11-01T07:42:31.825Z,60
2018-11-01T07:43:32.055Z,60
2018-11-01T07:44:32.298Z,65
2018-11-01T07:45:31.774Z,65
2018-11-01T07:46:32.014Z,70
2018-11-01T07:47:31.997Z,75
2018-11-01T07:48:32.127Z,75
2018-11-01T07:49:31.460Z,80
2018-11-01T07:50:31.717Z,80
2018-11-01T07:51:31.437Z,85
2018-11-01T07:52:31.431Z,95
2018-11-01T07:53:32.185Z,95
2018-11-01T07:54:32.174Z,95
2018-11-01T07:55:31.641Z,90
2018-11-01T07:56:32.158Z,85
2018-11-01T07:57:31.612Z,75
2018-11-01T07:58:32.329Z,70
2018-11-01T07:59:31.846Z,65
2018-11-01T08:00:31.834Z,60
2018-11-01T08:01:31.830Z,60
2018-11-01T08:02:31.810Z,60
2018-11-01T08:03:31.814Z,60
2018-11-01T08:04:31.532Z,60
2018-11-01T08:05:31.785Z,60
2018-11-01T08:06:31.760Z,65
2018-11-01T08:07:31.500Z,65
2018-11-01T08:08:31.220Z,70
2018-11-01T08:09:31.467Z,75
2018-11-01T08:10:31.970Z,80
2018-11-01T08:11:31.542Z,90
2018-11-01T08:12:31.952Z,90
2018-11-01T08:13:31.931Z,105
2018-11-01T08:14:31.926Z,115
2018-11-01T08:15:31.909Z,125
2018-11-01T08:16:31.638Z,135
2018-11-01T08:17:31.361Z,140
2018-11-01T08:18:31.103Z,150
2018-11-01T08:19:31.625Z,155
2018-11-01T08:20:32.717Z,160
2018-11-01T08:21:31.578Z,165
2018-11-01T08:22:31.320Z,170
2018-11-01T08:23:31.554Z,175
2018-11-01T08:24:31.027Z,180
2018-11-01T08:25:31.006Z,185
2018-11-01T08:26:31.521Z,190
2018-11-01T08:27:31.514Z,195
2018-11-01T08:28:31.235Z,185
2018-11-01T08:29:30.970Z,180
2018-11-01T08:30:30.955Z,180
2018-11-01T08:31:31.465Z,180
2018-11-01T08:32:31.445Z,175
2018-11-01T08:33:31.177Z,165
2018-11-01T08:34:31.431Z,150
2018-11-01T08:35:31.158Z,140
2018-11-01T08:36:31.141Z,130
2018-11-01T08:37:31.400Z,120
2018-11-01T08:38:31.129Z,115
2018-11-01T08:39:30.653Z,115
2018-11-01T08:40:31.109Z,115
2018-11-01T08:41:31.610Z,115
2018-11-01T08:42:31.342Z,115
2018-11-01T08:43:31.597Z,110
2018-11-01T08:44:31.315Z,105
2018-11-01T08:45:31.054Z,105
2018-11-01T08:46:31.034Z,100
2018-11-01T08:47:31.031Z,100
2018-11-01T08:48:30.761Z,105
2018-11-01T08:49:31.770Z,105
2018-11-01T08:50:30.998Z,105
2018-11-01T08:51:30.988Z,110
2018-11-01T08:52:31.512Z,110
2018-11-01T08:53:31.225Z,115
2018-11-01T08:54:31.204Z,120
2018-11-01T08:55:31.204Z,125
2018-11-01T08:56:31.453Z,125
2018-11-01T08:57:31.432Z,130
2018-11-01T08:58:31.424Z,135
2018-11-01T08:59:30.898Z,145
2018-11-01T09:00:30.891Z,140
2018-11-01T09:01:31.480Z,135
2018-11-01T09:02:30.870Z,130
2018-11-01T09:03:30.866Z,130
2018-11-01T09:04:31.327Z,125
2018-11-01T09:05:30.838Z,125
2018-11-01T09:06:30.828Z,125
2018-11-01T09:07:31.456Z,130
2018-11-01T09:08:31.059Z,135
2018-11-01T09:09:31.067Z,140
2018-11-01T09:10:31.413Z,145
2018-11-01T09:11:31.030Z,145
2018-11-01T09:12:31.040Z,145
2018-11-01T09:13:31.748Z,155
2018-11-01T09:14:31.052Z,165
2018-11-01T09:15:31.247Z,180
2018-11-01T09:16:30.722Z,185
2018-11-01T09:17:30.973Z,190
2018-11-01T09:18:30.710Z,195
2018-11-01T09:19:30.677Z,195
2018-11-01T09:20:31.212Z,185
2018-11-01T09:21:30.929Z,180
2018-11-01T09:22:30.924Z,180
2018-11-01T09:23:30.919Z,175
2018-11-01T09:24:30.642Z,170
2018-11-01T09:25:31.152Z,165
2018-11-01T09:26:30.883Z,165
2018-11-01T09:27:30.873Z,170
2018-11-01T09:28:30.870Z,175
2018-11-01T09:29:31.123Z,180
2018-11-01T09:30:30.841Z,185
2018-11-01T09:31:30.579Z,180
2018-11-01T09:32:30.566Z,175
2018-11-01T09:33:31.083Z,170
2018-11-01T09:34:30.551Z,165
2018-11-01T09:35:30.643Z,165
2018-11-01T09:36:31.050Z,155
2018-11-01T09:37:30.266Z,155
2018-11-01T09:38:30.510Z,150
2018-11-01T09:39:30.759Z,150
2018-11-01T09:40:30.489Z,150
2018-11-01T09:41:30.735Z,155
2018-11-01T09:42:31.001Z,155
2018-11-01T09:43:30.724Z,155
2018-11-01T09:44:30.477Z,155
2018-11-01T09:45:30.179Z,160
2018-11-01T09:46:31.156Z,165
2018-11-01T09:47:32.367Z,165
2018-11-01T09:48:30.678Z,170
2018-11-01T09:49:30.653Z,170
2018-11-01T09:50:30.667Z,170
2018-11-01T09:51:30.651Z,170
2018-11-01T09:52:30.119Z,165
2018-11-01T09:53:30.889Z,165
2018-11-01T09:54:30.409Z,160
2018-11-01T09:55:30.520Z,165
2018-11-01T09:56:30.635Z,175
2018-11-01T09:57:30.584Z,185
2018-11-01T09:58:30.324Z,190
2018-11-01T09:59:30.578Z,195
2018-11-01T10:00:30.038Z,200
2018-11-01T10:01:30.293Z,205
2018-11-01T10:02:30.289Z,210
2018-11-01T10:03:30.284Z,215
2018-11-01T10:04:30.264Z,215
2018-11-01T10:05:30.515Z,210
2018-11-01T10:06:30.516Z,205
2018-11-01T10:07:30.521Z,200
2018-11-01T10:08:30.232Z,195
2018-11-01T10:09:30.489Z,190
2018-11-01T10:10:30.227Z,190
2018-11-01T10:11:30.714Z,190
2018-11-01T10:12:30.722Z,190
2018-11-01T10:13:30.440Z,190
2018-11-01T10:14:30.445Z,185
2018-11-01T10:15:31.285Z,185
2018-11-01T10:16:30.788Z,175
2018-11-01T10:17:31.889Z,170
2018-11-01T10:18:32.180Z,165
2018-11-01T10:19:30.137Z,160
2018-11-01T10:20:30.376Z,160
2018-11-01T10:21:30.968Z,155
2018-11-01T10:22:31.429Z,150
2018-11-01T10:23:30.623Z,145
2018-11-01T10:24:30.097Z,140
2018-11-01T10:25:30.519Z,135
2018-11-01T10:26:30.332Z,135
2018-11-01T10:27:30.607Z,130
2018-11-01T10:28:30.322Z,130
2018-11-01T10:29:30.322Z,130
2018-11-01T10:30:29.780Z,130
2018-11-01T10:31:30.037Z,130
2018-11-01T10:32:30.039Z,125
2018-11-01T10:33:30.013Z,125
2018-11-01T10:34:30.262Z,125
2018-11-01T10:35:29.752Z,125
2018-11-01T10:36:29.736Z,130
2018-11-01T10:37:30.235Z,130
2018-11-01T10:38:29.971Z,130
2018-11-01T10:39:30.222Z,130
2018-11-01T10:40:30.214Z,130
2018-11-01T10:41:30.207Z,130
2018-11-01T10:42:29.938Z,130
2018-11-01T10:43:29.933Z,130
2018-11-01T10:44:30.190Z,130
2018-11-01T10:45:30.236Z,130
2018-11-01T10:46:30.415Z,130
2018-11-01T10:47:30.620Z,130
2018-11-01T10:48:29.891Z,130
2018-11-01T10:49:29.867Z,130
2018-11-01T10:50:30.166Z,130
2018-11-01T10:51:30.117Z,130
2018-11-01T10:52:30.100Z,130
2018-11-01T10:53:30.113Z,130
2018-11-01T10:54:30.631Z,125
2018-11-01T10:55:30.112Z,125
2018-11-01T10:56:30.062Z,125
2018-11-01T10:57:30.064Z,120
2018-11-01T10:58:30.053Z,120
2018-11-01T10:59:30.047Z,120
2018-11-01T11:00:31.858Z,120
2018-11-01T11:01:30.288Z,120
2018-11-01T11:02:29.755Z,125
2018-11-01T11:03:29.745Z,135
2018-11-01T11:04:29.484Z,145
2018-11-01T11:05:29.992Z,160
2018-11-01T11:06:30.168Z,175
2018-11-01T11:07:29.967Z,180
2018-11-01T11:08:29.964Z,180
2018-11-01T11:09:29.957Z,180
2018-11-01T11:10:30.206Z,180
2018-11-01T11:11:30.200Z,175
2018-11-01T11:12:29.926Z,160
2018-11-01T11:13:29.918Z,150
2018-11-01T11:14:29.196Z,150
2018-11-01T11:15:29.642Z,145
2018-11-01T11:16:29.634Z,145
2018-11-01T11:17:29.624Z,140
2018-11-01T11:18:29.618Z,140
2018-11-01T11:19:29.652Z,130
2018-11-01T11:20:29.874Z,120
2018-11-01T11:21:29.993Z,110
2018-11-01T11:22:29.839Z,110
2018-11-01T11:23:29.831Z,115
2018-11-01T11:24:29.561Z,125
2018-11-01T11:25:29.557Z,125
2018-11-01T11:26:30.072Z,125
2018-11-01T11:27:29.801Z,125
2018-11-01T11:28:30.038Z,125
2018-11-01T11:29:29.511Z,125
2018-11-01T11:30:31.053Z,130
2018-11-01T11:31:29.774Z,130
2018-11-01T11:32:29.753Z,135
2018-11-01T11:33:29.998Z,135
2018-11-01T11:34:29.732Z,135
2018-11-01T11:35:29.688Z,135
2018-11-01T11:36:29.714Z,130
2018-11-01T11:37:29.964Z,130
2018-11-01T11:38:29.702Z,135
2018-11-01T11:39:30.245Z,135
2018-11-01T11:40:29.679Z,130
2018-11-01T11:41:29.151Z,130
2018-11-01T11:42:29.920Z,135
2018-11-01T11:43:29.388Z,135
2018-11-01T11:44:29.904Z,135
2018-11-01T11:45:29.646Z,135
2018-11-01T11:46:29.629Z,135
2018-11-01T11:47:29.407Z,140
2018-11-01T11:48:29.613Z,145
2018-11-01T11:49:29.593Z,150
2018-11-01T11:50:29.855Z,150
2018-11-01T11:51:30.437Z,155
2018-11-01T11:52:29.574Z,160
2018-11-01T11:53:29.566Z,165
2018-11-01T11:54:29.812Z,170
2018-11-01T11:55:29.290Z,175
2018-11-01T11:56:29.296Z,180
2018-11-01T11:57:29.020Z,180
2018-11-01T11:58:29.799Z,175
2018-11-01T11:59:29.504Z,170
2018-11-01T12:00:29.507Z,165
2018-11-01T12:01:29.241Z,170
2018-11-01T12:02:29.663Z,165
2018-11-01T12:03:29.217Z,160
2018-11-01T12:04:29.474Z,160
2018-11-01T12:05:29.479Z,160
2018-11-01T12:06:30.412Z,165
2018-11-01T12:07:29.199Z,165
2018-11-01T12:08:29.434Z,165
2018-11-01T12:09:29.429Z,165
2018-11-01T12:10:29.422Z,160
2018-11-01T12:11:29.153Z,165
2018-11-01T12:12:29.674Z,165
2018-11-01T12:13:28.884Z,165
2018-11-01T12:14:29.335Z,165
2018-11-01T12:15:29.383Z,165
2018-11-01T12:16:29.128Z,165
2018-11-01T12:17:29.108Z,160
2018-11-01T12:18:29.095Z,160
2018-11-01T12:19:29.339Z,155
2018-11-01T12:20:29.593Z,150
2018-11-01T12:21:29.331Z,145
2018-11-01T12:22:30.434Z,145
2018-11-01T12:23:29.569Z,145
2018-11-01T12:24:29.306Z,150
2018-11-01T12:25:29.342Z,145
2018-11-01T12:26:29.547Z,145
2018-11-01T12:27:29.287Z,140
2018-11-01T12:28:29.439Z,140
2018-11-01T12:29:29.267Z,135
2018-11-01T12:30:28.997Z,130
2018-11-01T12:31:29.252Z,130
2018-11-01T12:32:29.507Z,125
2018-11-01T12:33:28.969Z,125
2018-11-01T12:34:29.225Z,125
2018-11-01T12:35:29.532Z,130
2018-11-01T12:36:29.210Z,125
2018-11-01T12:37:28.936Z,125
2018-11-01T12:38:29.188Z,125
2018-11-01T12:39:29.180Z,125
2018-11-01T12:40:28.669Z,125
2018-11-01T12:41:28.734Z,125
2018-11-01T12:42:28.381Z,125
2018-11-01T12:43:28.640Z,125
2018-11-01T12:44:28.622Z,135
2018-11-01T12:45:28.872Z,135
2018-11-01T12:46:29.389Z,135
2018-11-01T12:47:28.600Z,135
2018-11-01T12:48:29.369Z,140
2018-11-01T12:49:29.102Z,145
2018-11-01T12:50:29.650Z,150
2018-11-01T12:51:28.564Z,150
2018-11-01T12:52:29.063Z,150
2018-11-01T12:53:29.078Z,150
2018-11-01T12:54:28.802Z,145
2018-11-01T12:55:28.534Z,145
2018-11-01T12:56:28.857Z,145
2018-11-01T12:57:29.029Z,140
2018-11-01T12:58:28.773Z,140
2018-11-01T12:59:29.023Z,145
2018-11-01T13:00:29.265Z,145
2018-11-01T13:01:29.270Z,145
2018-11-01T13:02:28.884Z,140
2018-11-01T13:03:28.723Z,140
2018-11-01T13:04:28.467Z,140
2018-11-01T13:05:29.412Z,135
2018-11-01T13:06:28.447Z,135
2018-11-01T13:07:28.693Z,140
2018-11-01T13:08:28.706Z,140
2018-11-01T13:09:28.681Z,140
2018-11-01T13:10:28.682Z,140
2018-11-01T13:11:28.929Z,140
2018-11-01T13:12:28.911Z,140
2018-11-01T13:13:28.901Z,140
2018-11-01T13:14:28.370Z,140
2018-11-01T13:15:28.885Z,135
2018-11-01T13:16:28.620Z,135
2018-11-01T13:17:28.609Z,130
2018-11-01T13:18:28.850Z,130
2018-11-01T13:19:28.595Z,125
2018-11-01T13:20:28.584Z,125
2018-11-01T13:21:28.577Z,125
2018-11-01T13:22:28.567Z,125
2018-11-01T13:23:28.815Z,130
2018-11-01T13:24:28.301Z,130
2018-11-01T13:25:28.546Z,125
2018-11-01T13:26:28.793Z,125
2018-11-01T13:27:28.519Z,120
2018-11-01T13:28:28.511Z,115
2018-11-01T13:29:29.233Z,110
2018-11-01T13:30:28.758Z,105
2018-11-01T13:31:28.756Z,105
2018-11-01T13:32:29.009Z,110
2018-11-01T13:33:28.993Z,110
2018-11-01T13:34:28.465Z,115
2018-11-01T13:35:29.227Z,115
2018-11-01T13:36:28.974Z,115
2018-11-01T13:37:28.705Z,115
2018-11-01T13:38:28.751Z,115
2018-11-01T13:39:29.813Z,120
2018-11-01T13:40:31.089Z,115
2018-11-01T13:41:29.589Z,115
2018-11-01T13:42:28.399Z,115
2018-11-01T13:43:28.909Z,110
2018-11-01T13:44:28.641Z,110
2018-11-01T13:45:28.631Z,110
2018-11-01T13:46:29.191Z,110
2018-11-01T13:47:29.117Z,105
2018-11-01T13:48:30.521Z,105
2018-11-01T13:49:28.606Z,100
2018-11-01T13:50:28.336Z,100
2018-11-01T13:51:28.852Z,100
2018-11-01T13:52:28.051Z,100
2018-11-01T13:53:28.816Z,105
2018-11-01T13:54:28.392Z,105
2018-11-01T13:55:28.548Z,105
2018-11-01T13:56:28.551Z,105
2018-11-01T13:57:28.530Z,100
2018-11-01T13:58:28.255Z,100
2018-11-01T13:59:28.510Z,100
2018-11-01T14:00:28.496Z,95
2018-11-01T14:01:28.226Z,95
2018-11-01T14:02:28.221Z,90
2018-11-01T14:03:28.471Z,90
2018-11-01T14:04:28.466Z,95
2018-11-01T14:05:28.472Z,95
2018-11-01T14:06:29.161Z,95
2018-11-01T14:07:28.173Z,90
2018-11-01T14:08:27.912Z,90
2018-11-01T14:09:27.899Z,90
2018-11-01T14:10:28.674Z,90
2018-11-01T14:11:28.399Z,90
2018-11-01T14:12:28.389Z,90
2018-11-01T14:13:28.943Z,90
2018-11-01T14:14:30.993Z,85
2018-11-01T14:15:30.066Z,80
2018-11-01T14:16:28.361Z,80